sensor_id;sensor_type;location;lat;lon;timestamp;pressure;altitude;pressure_sealevel;temperature;humidity
63190;BME280;49286;44.460;26.114;2023-02-10T00:00:24;102985.00;;;-5.17;100.00
63190;BME280;49286;44.460;26.114;2023-02-10T00:02:49;102968.69;;;-5.26;100.00
63190;BME280;49286;44.460;26.114;2023-02-10T00:05:15;102991.09;;;-4.99;100.00
63190;BME280;49286;44.460;26.114;2023-02-10T00:07:40;103009.75;;;-4.84;100.00
63190;BME280;49286;44.460;26.114;2023-02-10T00:10:06;102861.69;;;-5.46;100.00
63190;BME280;49286;44.460;26.114;2023-02-10T00:12:32;102892.50;;;-5.54;100.00
63190;BME280;49286;44.460;26.114;2023-02-10T00:15:00;102982.25;;;-4.94;100.00
63190;BME280;49286;44.460;26.114;2023-02-10T00:17:25;103003.56;;;-4.78;100.00
63190;BME280;49286;44.460;26.114;2023-02-10T00:19:51;102983.97;;;-4.86;100.00
63190;BME280;49286;44.460;26.114;2023-02-10T00:22:18;102953.72;;;-5.06;100.00
63190;BME280;49286;44.460;26.114;2023-02-10T00:24:43;102988.56;;;-4.66;100.00
63190;BME280;49286;44.460;26.114;2023-02-10T00:27:09;102828.25;;;-5.57;100.00
63190;BME280;49286;44.460;26.114;2023-02-10T00:29:34;102841.63;;;-5.59;100.00
63190;BME280;49286;44.460;26.114;2023-02-10T00:32:00;102863.59;;;-5.53;100.00
63190;BME280;49286;44.460;26.114;2023-02-10T00:34:25;102981.28;;;-4.79;100.00
63190;BME280;49286;44.460;26.114;2023-02-10T00:36:52;102982.41;;;-4.93;100.00
63190;BME280;49286;44.460;26.114;2023-02-10T00:39:18;102826.69;;;-5.63;100.00
63190;BME280;49286;44.460;26.114;2023-02-10T00:41:43;102952.88;;;-4.98;100.00
63190;BME280;49286;44.460;26.114;2023-02-10T00:44:09;102838.59;;;-5.31;100.00
63190;BME280;49286;44.460;26.114;2023-02-10T00:46:35;102828.63;;;-5.36;100.00
63190;BME280;49286;44.460;26.114;2023-02-10T00:49:01;102945.06;;;-4.57;100.00
63190;BME280;49286;44.460;26.114;2023-02-10T00:51:26;102964.97;;;-4.55;100.00
63190;BME280;49286;44.460;26.114;2023-02-10T00:53:52;102966.31;;;-4.50;100.00
63190;BME280;49286;44.460;26.114;2023-02-10T00:56:18;102825.63;;;-5.41;100.00
63190;BME280;49286;44.460;26.114;2023-02-10T00:58:45;102917.22;;;-4.88;100.00
63190;BME280;49286;44.460;26.114;2023-02-10T01:01:10;102931.75;;;-4.71;100.00
63190;BME280;49286;44.460;26.114;2023-02-10T01:03:38;102842.59;;;-5.41;100.00
63190;BME280;49286;44.460;26.114;2023-02-10T01:06:04;102948.16;;;-4.77;100.00
63190;BME280;49286;44.460;26.114;2023-02-10T01:08:30;102860.41;;;-5.34;100.00
63190;BME280;49286;44.460;26.114;2023-02-10T01:11:06;102858.53;;;-5.44;100.00
63190;BME280;49286;44.460;26.114;2023-02-10T01:13:33;102799.59;;;-5.70;100.00
63190;BME280;49286;44.460;26.114;2023-02-10T01:15:59;102981.94;;;-4.64;100.00
63190;BME280;49286;44.460;26.114;2023-02-10T01:18:25;102975.06;;;-4.56;100.00
63190;BME280;49286;44.460;26.114;2023-02-10T01:20:51;102975.69;;;-4.50;100.00
63190;BME280;49286;44.460;26.114;2023-02-10T01:23:16;102989.28;;;-4.76;100.00
63190;BME280;49286;44.460;26.114;2023-02-10T01:25:42;102957.00;;;-4.91;100.00
63190;BME280;49286;44.460;26.114;2023-02-10T01:28:08;102932.88;;;-4.93;100.00
63190;BME280;49286;44.460;26.114;2023-02-10T01:30:34;102933.34;;;-4.89;100.00
63190;BME280;49286;44.460;26.114;2023-02-10T01:33:00;102966.28;;;-4.67;100.00
63190;BME280;49286;44.460;26.114;2023-02-10T01:35:26;102924.31;;;-4.85;100.00
63190;BME280;49286;44.460;26.114;2023-02-10T01:37:51;102957.41;;;-4.62;100.00
63190;BME280;49286;44.460;26.114;2023-02-10T01:40:17;102806.84;;;-5.66;100.00
63190;BME280;49286;44.460;26.114;2023-02-10T01:42:43;102843.19;;;-5.44;100.00
63190;BME280;49286;44.460;26.114;2023-02-10T01:45:32;102963.28;;;-4.63;100.00
63190;BME280;49286;44.460;26.114;2023-02-10T01:47:59;102959.47;;;-4.75;100.00
63190;BME280;49286;44.460;26.114;2023-02-10T01:50:40;102950.19;;;-4.57;100.00
63190;BME280;49286;44.460;26.114;2023-02-10T01:53:06;102925.41;;;-4.74;100.00
63190;BME280;49286;44.460;26.114;2023-02-10T01:55:33;102921.06;;;-4.75;100.00
63190;BME280;49286;44.460;26.114;2023-02-10T01:58:01;102893.78;;;-4.75;100.00
63190;BME280;49286;44.460;26.114;2023-02-10T02:00:28;102945.97;;;-4.57;100.00
63190;BME280;49286;44.460;26.114;2023-02-10T02:02:54;102825.84;;;-5.22;100.00
63190;BME280;49286;44.460;26.114;2023-02-10T02:05:29;102969.59;;;-4.68;100.00
63190;BME280;49286;44.460;26.114;2023-02-10T02:07:58;102946.66;;;-4.75;100.00
63190;BME280;49286;44.460;26.114;2023-02-10T02:13:15;102781.75;;;-5.61;100.00
63190;BME280;49286;44.460;26.114;2023-02-10T02:21:29;102945.97;;;-4.57;100.00
63190;BME280;49286;44.460;26.114;2023-02-10T02:27:00;102921.97;;;-4.66;100.00
63190;BME280;49286;44.460;26.114;2023-02-10T02:35:10;102773.72;;;-5.64;100.00
63190;BME280;49286;44.460;26.114;2023-02-10T02:37:44;102882.09;;;-4.97;100.00
63190;BME280;49286;44.460;26.114;2023-02-10T02:40:12;102763.84;;;-5.61;100.00
63190;BME280;49286;44.460;26.114;2023-02-10T02:42:38;102742.97;;;-5.82;100.00
63190;BME280;49286;44.460;26.114;2023-02-10T02:56:06;102902.97;;;-4.77;100.00
63190;BME280;49286;44.460;26.114;2023-02-10T02:59:03;102897.28;;;-4.99;100.00
63190;BME280;49286;44.460;26.114;2023-02-10T03:01:37;102869.50;;;-5.20;100.00
63190;BME280;49286;44.460;26.114;2023-02-10T03:04:05;102766.41;;;-5.53;100.00
63190;BME280;49286;44.460;26.114;2023-02-10T03:06:31;102881.63;;;-5.02;100.00
63190;BME280;49286;44.460;26.114;2023-02-10T03:08:56;102865.03;;;-5.14;100.00
63190;BME280;49286;44.460;26.114;2023-02-10T03:11:22;102888.81;;;-4.82;100.00
63190;BME280;49286;44.460;26.114;2023-02-10T03:13:47;102882.75;;;-4.82;100.00
63190;BME280;49286;44.460;26.114;2023-02-10T03:16:13;102883.69;;;-4.73;100.00
63190;BME280;49286;44.460;26.114;2023-02-10T03:18:38;102827.97;;;-5.18;100.00
63190;BME280;49286;44.460;26.114;2023-02-10T03:21:04;102851.59;;;-5.20;100.00
63190;BME280;49286;44.460;26.114;2023-02-10T03:23:30;102854.03;;;-5.13;100.00
63190;BME280;49286;44.460;26.114;2023-02-10T03:25:58;102863.19;;;-5.15;100.00
63190;BME280;49286;44.460;26.114;2023-02-10T03:28:24;102874.84;;;-5.01;100.00
63190;BME280;49286;44.460;26.114;2023-02-10T03:30:49;102827.00;;;-5.36;100.00
63190;BME280;49286;44.460;26.114;2023-02-10T03:33:16;102771.16;;;-5.64;100.00
63190;BME280;49286;44.460;26.114;2023-02-10T03:35:43;102843.00;;;-5.21;100.00
63190;BME280;49286;44.460;26.114;2023-02-10T03:38:10;102894.81;;;-4.81;100.00
63190;BME280;49286;44.460;26.114;2023-02-10T03:40:35;102727.81;;;-5.80;100.00
63190;BME280;49286;44.460;26.114;2023-02-10T03:43:02;102872.03;;;-4.87;100.00
63190;BME280;49286;44.460;26.114;2023-02-10T03:45:27;102848.38;;;-4.93;100.00
63190;BME280;49286;44.460;26.114;2023-02-10T03:47:53;102807.81;;;-5.06;100.00
63190;BME280;49286;44.460;26.114;2023-02-10T03:50:18;102837.38;;;-4.92;100.00
63190;BME280;49286;44.460;26.114;2023-02-10T03:52:43;102835.38;;;-5.03;100.00
63190;BME280;49286;44.460;26.114;2023-02-10T03:55:09;102867.03;;;-4.94;100.00
63190;BME280;49286;44.460;26.114;2023-02-10T03:57:39;102819.94;;;-5.30;100.00
63190;BME280;49286;44.460;26.114;2023-02-10T04:00:06;102843.25;;;-5.35;100.00
63190;BME280;49286;44.460;26.114;2023-02-10T04:02:32;102685.03;;;-5.99;100.00
63190;BME280;49286;44.460;26.114;2023-02-10T04:04:57;102842.50;;;-5.01;100.00
63190;BME280;49286;44.460;26.114;2023-02-10T04:07:23;102737.38;;;-5.62;100.00
63190;BME280;49286;44.460;26.114;2023-02-10T04:09:48;102630.59;;;-6.06;100.00
63190;BME280;49286;44.460;26.114;2023-02-10T04:12:14;102710.53;;;-6.07;100.00
63190;BME280;49286;44.460;26.114;2023-02-10T04:14:39;102735.34;;;-5.73;100.00
63190;BME280;49286;44.460;26.114;2023-02-10T04:17:04;102767.16;;;-5.54;100.00
63190;BME280;49286;44.460;26.114;2023-02-10T04:19:30;102702.47;;;-6.03;100.00
63190;BME280;49286;44.460;26.114;2023-02-10T04:21:56;102861.91;;;-5.03;100.00
63190;BME280;49286;44.460;26.114;2023-02-10T04:24:21;102851.19;;;-5.07;100.00
63190;BME280;49286;44.460;26.114;2023-02-10T04:26:47;102655.09;;;-6.00;100.00
63190;BME280;49286;44.460;26.114;2023-02-10T04:29:12;102707.81;;;-5.76;100.00
63190;BME280;49286;44.460;26.114;2023-02-10T04:31:38;102703.47;;;-5.68;100.00
63190;BME280;49286;44.460;26.114;2023-02-10T04:34:03;102652.47;;;-6.17;100.00
63190;BME280;49286;44.460;26.114;2023-02-10T04:36:29;102684.63;;;-5.95;100.00
63190;BME280;49286;44.460;26.114;2023-02-10T04:38:54;102819.28;;;-5.02;100.00
63190;BME280;49286;44.460;26.114;2023-02-10T04:41:20;102783.03;;;-4.98;100.00
63190;BME280;49286;44.460;26.114;2023-02-10T04:43:45;102674.97;;;-5.88;100.00
63190;BME280;49286;44.460;26.114;2023-02-10T04:46:11;102667.88;;;-6.00;100.00
63190;BME280;49286;44.460;26.114;2023-02-10T04:48:36;102815.25;;;-5.00;100.00
63190;BME280;49286;44.460;26.114;2023-02-10T04:51:07;102820.44;;;-5.16;100.00
63190;BME280;49286;44.460;26.114;2023-02-10T04:53:32;102807.47;;;-5.26;100.00
63190;BME280;49286;44.460;26.114;2023-02-10T04:55:58;102767.59;;;-5.24;100.00
63190;BME280;49286;44.460;26.114;2023-02-10T04:58:23;102813.97;;;-5.21;100.00
63190;BME280;49286;44.460;26.114;2023-02-10T05:00:49;102811.63;;;-5.02;100.00
63190;BME280;49286;44.460;26.114;2023-02-10T05:03:14;102817.63;;;-5.02;100.00
63190;BME280;49286;44.460;26.114;2023-02-10T05:05:40;102793.84;;;-5.10;100.00
63190;BME280;49286;44.460;26.114;2023-02-10T05:08:05;102674.22;;;-5.96;100.00
63190;BME280;49286;44.460;26.114;2023-02-10T05:10:32;102798.66;;;-5.13;100.00
63190;BME280;49286;44.460;26.114;2023-02-10T05:12:57;102785.06;;;-5.20;100.00
63190;BME280;49286;44.460;26.114;2023-02-10T05:15:23;102796.88;;;-4.88;100.00
63190;BME280;49286;44.460;26.114;2023-02-10T05:17:48;102812.97;;;-4.97;100.00
63190;BME280;49286;44.460;26.114;2023-02-10T05:20:14;102823.94;;;-5.07;100.00
63190;BME280;49286;44.460;26.114;2023-02-10T05:22:39;102797.19;;;-5.35;100.00
63190;BME280;49286;44.460;26.114;2023-02-10T05:25:06;102692.13;;;-5.96;100.00
63190;BME280;49286;44.460;26.114;2023-02-10T05:27:32;102690.28;;;-6.06;100.00
63190;BME280;49286;44.460;26.114;2023-02-10T05:29:58;102691.34;;;-6.04;100.00
63190;BME280;49286;44.460;26.114;2023-02-10T05:32:24;102709.78;;;-5.73;100.00
63190;BME280;49286;44.460;26.114;2023-02-10T05:34:50;102682.56;;;-5.73;100.00
63190;BME280;49286;44.460;26.114;2023-02-10T05:37:16;102797.50;;;-5.41;100.00
63190;BME280;49286;44.460;26.114;2023-02-10T05:39:41;102813.97;;;-5.21;100.00
63190;BME280;49286;44.460;26.114;2023-02-10T05:42:08;102651.94;;;-6.06;100.00
63190;BME280;49286;44.460;26.114;2023-02-10T05:44:33;102685.97;;;-5.81;100.00
63190;BME280;49286;44.460;26.114;2023-02-10T05:46:59;102840.53;;;-4.95;100.00
63190;BME280;49286;44.460;26.114;2023-02-10T05:49:25;102725.56;;;-5.77;100.00
63190;BME280;49286;44.460;26.114;2023-02-10T05:51:51;102818.31;;;-5.29;100.00
63190;BME280;49286;44.460;26.114;2023-02-10T05:54:16;102735.38;;;-5.64;100.00
63190;BME280;49286;44.460;26.114;2023-02-10T05:56:42;102798.53;;;-5.05;100.00
63190;BME280;49286;44.460;26.114;2023-02-10T05:59:09;102676.25;;;-5.67;100.00
63190;BME280;49286;44.460;26.114;2023-02-10T06:01:35;102782.84;;;-5.00;100.00
63190;BME280;49286;44.460;26.114;2023-02-10T06:04:01;102819.97;;;-4.79;100.00
63190;BME280;49286;44.460;26.114;2023-02-10T06:06:26;102838.44;;;-4.90;100.00
63190;BME280;49286;44.460;26.114;2023-02-10T06:08:52;102729.91;;;-5.43;100.00
63190;BME280;49286;44.460;26.114;2023-02-10T06:11:18;102662.00;;;-5.57;100.00
63190;BME280;49286;44.460;26.114;2023-02-10T06:13:43;102789.78;;;-4.99;100.00
63190;BME280;49286;44.460;26.114;2023-02-10T06:16:09;102817.88;;;-4.74;100.00
63190;BME280;49286;44.460;26.114;2023-02-10T06:18:36;102839.91;;;-4.59;100.00
63190;BME280;49286;44.460;26.114;2023-02-10T06:21:02;102748.69;;;-5.00;100.00
63190;BME280;49286;44.460;26.114;2023-02-10T06:23:27;102825.69;;;-4.64;100.00
63190;BME280;49286;44.460;26.114;2023-02-10T06:25:53;102821.19;;;-4.58;100.00
63190;BME280;49286;44.460;26.114;2023-02-10T06:28:22;102835.50;;;-4.77;100.00
63190;BME280;49286;44.460;26.114;2023-02-10T06:30:47;102815.47;;;-4.55;100.00
63190;BME280;49286;44.460;26.114;2023-02-10T06:33:13;102713.59;;;-5.01;100.00
63190;BME280;49286;44.460;26.114;2023-02-10T06:35:38;102852.28;;;-4.20;100.00
63190;BME280;49286;44.460;26.114;2023-02-10T06:38:04;102834.19;;;-4.30;100.00
63190;BME280;49286;44.460;26.114;2023-02-10T06:40:29;102709.38;;;-4.92;100.00
63190;BME280;49286;44.460;26.114;2023-02-10T06:42:55;102812.94;;;-4.47;100.00
63190;BME280;49286;44.460;26.114;2023-02-10T06:45:20;102697.34;;;-4.76;100.00
63190;BME280;49286;44.460;26.114;2023-02-10T06:47:46;102837.50;;;-3.88;100.00
63190;BME280;49286;44.460;26.114;2023-02-10T06:50:11;102801.75;;;-4.04;100.00
63190;BME280;49286;44.460;26.114;2023-02-10T06:52:38;102739.53;;;-4.37;100.00
63190;BME280;49286;44.460;26.114;2023-02-10T06:55:08;102732.47;;;-4.40;100.00
63190;BME280;49286;44.460;26.114;2023-02-10T06:57:35;102716.75;;;-4.43;100.00
63190;BME280;49286;44.460;26.114;2023-02-10T07:00:06;102859.34;;;-3.74;100.00
63190;BME280;49286;44.460;26.114;2023-02-10T07:02:34;102842.28;;;-3.65;100.00
63190;BME280;49286;44.460;26.114;2023-02-10T07:04:59;102718.28;;;-4.54;100.00
63190;BME280;49286;44.460;26.114;2023-02-10T07:07:25;102763.19;;;-4.49;100.00
63190;BME280;49286;44.460;26.114;2023-02-10T07:09:51;102721.44;;;-4.48;100.00
63190;BME280;49286;44.460;26.114;2023-02-10T07:12:19;102835.50;;;-3.73;100.00
63190;BME280;49286;44.460;26.114;2023-02-10T07:14:44;102851.25;;;-3.33;100.00
63190;BME280;49286;44.460;26.114;2023-02-10T07:17:10;102823.81;;;-3.52;100.00
63190;BME280;49286;44.460;26.114;2023-02-10T07:19:35;102876.13;;;-3.24;100.00
63190;BME280;49286;44.460;26.114;2023-02-10T07:22:01;102740.94;;;-3.96;100.00
63190;BME280;49286;44.460;26.114;2023-02-10T07:24:31;102842.56;;;-3.16;100.00
63190;BME280;49286;44.460;26.114;2023-02-10T07:26:56;102871.50;;;-3.00;100.00
63190;BME280;49286;44.460;26.114;2023-02-10T07:29:22;102877.50;;;-2.91;100.00
63190;BME280;49286;44.460;26.114;2023-02-10T07:31:47;102871.13;;;-2.86;100.00
63190;BME280;49286;44.460;26.114;2023-02-10T07:34:13;102765.44;;;-3.63;100.00
63190;BME280;49286;44.460;26.114;2023-02-10T07:36:40;102646.50;;;-4.19;100.00
63190;BME280;49286;44.460;26.114;2023-02-10T07:39:05;102740.09;;;-3.60;100.00
63190;BME280;49286;44.460;26.114;2023-02-10T07:41:31;102859.94;;;-2.78;100.00
63190;BME280;49286;44.460;26.114;2023-02-10T07:43:56;102860.88;;;-2.58;100.00
63190;BME280;49286;44.460;26.114;2023-02-10T07:46:21;102889.94;;;-2.68;100.00
63190;BME280;49286;44.460;26.114;2023-02-10T07:48:47;102889.69;;;-2.43;100.00
63190;BME280;49286;44.460;26.114;2023-02-10T07:51:12;102746.53;;;-3.19;100.00
63190;BME280;49286;44.460;26.114;2023-02-10T07:53:38;102735.09;;;-3.22;100.00
63190;BME280;49286;44.460;26.114;2023-02-10T07:56:04;102889.69;;;-2.43;100.00
63190;BME280;49286;44.460;26.114;2023-02-10T07:58:30;102882.06;;;-2.61;100.00
63190;BME280;49286;44.460;26.114;2023-02-10T08:00:56;102863.66;;;-2.46;100.00
63190;BME280;49286;44.460;26.114;2023-02-10T08:03:22;102892.91;;;-2.27;100.00
63190;BME280;49286;44.460;26.114;2023-02-10T08:05:47;102885.53;;;-2.60;100.00
63190;BME280;49286;44.460;26.114;2023-02-10T08:08:14;102884.84;;;-2.49;100.00
63190;BME280;49286;44.460;26.114;2023-02-10T08:10:40;102764.16;;;-3.04;100.00
63190;BME280;49286;44.460;26.114;2023-02-10T08:13:06;102761.03;;;-2.91;100.00
63190;BME280;49286;44.460;26.114;2023-02-10T08:15:33;102877.13;;;-2.21;100.00
63190;BME280;49286;44.460;26.114;2023-02-10T08:17:59;102835.75;;;-2.33;100.00
63190;BME280;49286;44.460;26.114;2023-02-10T08:20:25;102852.28;;;-2.02;100.00
63190;BME280;49286;44.460;26.114;2023-02-10T08:22:57;102769.81;;;-2.51;100.00
63190;BME280;49286;44.460;26.114;2023-02-10T08:25:24;102863.38;;;-1.74;100.00
63190;BME280;49286;44.460;26.114;2023-02-10T08:27:49;102734.66;;;-2.42;100.00
63190;BME280;49286;44.460;26.114;2023-02-10T08:30:15;102856.66;;;-1.53;100.00
63190;BME280;49286;44.460;26.114;2023-02-10T08:32:40;102727.22;;;-2.58;100.00
63190;BME280;49286;44.460;26.114;2023-02-10T08:35:06;102759.38;;;-2.53;100.00
63190;BME280;49286;44.460;26.114;2023-02-10T08:37:32;102847.81;;;-1.75;100.00
63190;BME280;49286;44.460;26.114;2023-02-10T08:39:57;102870.56;;;-1.51;100.00
63190;BME280;49286;44.460;26.114;2023-02-10T08:42:24;102851.47;;;-1.63;100.00
63190;BME280;49286;44.460;26.114;2023-02-10T08:44:49;102815.41;;;-1.73;100.00
63190;BME280;49286;44.460;26.114;2023-02-10T08:47:15;102796.06;;;-1.78;100.00
63190;BME280;49286;44.460;26.114;2023-02-10T08:49:41;102770.84;;;-1.82;100.00
63190;BME280;49286;44.460;26.114;2023-02-10T08:52:07;102758.72;;;-1.94;100.00
63190;BME280;49286;44.460;26.114;2023-02-10T08:54:33;102764.91;;;-1.92;100.00
63190;BME280;49286;44.460;26.114;2023-02-10T08:56:58;102850.84;;;-1.31;100.00
63190;BME280;49286;44.460;26.114;2023-02-10T08:59:24;102877.66;;;-1.48;100.00
63190;BME280;49286;44.460;26.114;2023-02-10T09:01:50;102861.63;;;-1.35;100.00
63190;BME280;49286;44.460;26.114;2023-02-10T09:04:15;102844.41;;;-1.26;100.00
63190;BME280;49286;44.460;26.114;2023-02-10T09:06:41;102742.44;;;-1.74;100.00
63190;BME280;49286;44.460;26.114;2023-02-10T09:09:13;102722.53;;;-1.95;100.00
63190;BME280;49286;44.460;26.114;2023-02-10T09:11:40;102866.09;;;-1.03;100.00
63190;BME280;49286;44.460;26.114;2023-02-10T09:14:07;102873.63;;;-0.86;100.00
63190;BME280;49286;44.460;26.114;2023-02-10T09:16:33;102848.59;;;-1.08;100.00
63190;BME280;49286;44.460;26.114;2023-02-10T09:18:58;102863.38;;;-1.15;100.00
63190;BME280;49286;44.460;26.114;2023-02-10T09:21:24;102767.50;;;-1.42;100.00
63190;BME280;49286;44.460;26.114;2023-02-10T09:23:50;102834.94;;;-0.96;100.00
63190;BME280;49286;44.460;26.114;2023-02-10T09:26:16;102761.31;;;-1.34;100.00
63190;BME280;49286;44.460;26.114;2023-02-10T09:28:41;102748.94;;;-1.48;100.00
63190;BME280;49286;44.460;26.114;2023-02-10T09:31:08;102850.97;;;-0.70;100.00
63190;BME280;49286;44.460;26.114;2023-02-10T09:33:34;102841.16;;;-0.53;100.00
63190;BME280;49286;44.460;26.114;2023-02-10T09:36:02;102745.38;;;-1.30;100.00
63190;BME280;49286;44.460;26.114;2023-02-10T09:38:29;102802.34;;;-0.86;100.00
63190;BME280;49286;44.460;26.114;2023-02-10T09:44:00;102867.81;;;-0.12;98.91
63190;BME280;49286;44.460;26.114;2023-02-10T09:49:48;102863.53;;;0.09;92.74
63190;BME280;49286;44.460;26.114;2023-02-10T09:54:58;102701.94;;;-0.53;90.32
63190;BME280;49286;44.460;26.114;2023-02-10T09:57:37;102845.44;;;0.19;88.49
63190;BME280;49286;44.460;26.114;2023-02-10T10:00:15;102853.75;;;0.05;89.06
63190;BME280;49286;44.460;26.114;2023-02-10T10:02:48;102825.03;;;-0.20;89.18
63190;BME280;49286;44.460;26.114;2023-02-10T10:08:50;102825.63;;;-0.12;84.42
63190;BME280;49286;44.460;26.114;2023-02-10T10:11:25;102825.31;;;0.15;80.42
63190;BME280;49286;44.460;26.114;2023-02-10T10:13:52;102814.22;;;0.16;83.78
63190;BME280;49286;44.460;26.114;2023-02-10T10:16:25;102802.78;;;0.35;85.41
63190;BME280;49286;44.460;26.114;2023-02-10T10:19:06;102789.31;;;0.17;81.20
63190;BME280;49286;44.460;26.114;2023-02-10T10:21:47;102787.41;;;0.58;82.46
63190;BME280;49286;44.460;26.114;2023-02-10T10:29:53;102694.38;;;-0.30;80.64
63190;BME280;49286;44.460;26.114;2023-02-10T10:32:46;102678.25;;;-0.27;82.66
63190;BME280;49286;44.460;26.114;2023-02-10T10:35:26;102682.47;;;-0.17;80.50
63190;BME280;49286;44.460;26.114;2023-02-10T10:37:54;102751.22;;;0.69;78.19
63190;BME280;49286;44.460;26.114;2023-02-10T10:40:24;102732.41;;;0.59;74.17
63190;BME280;49286;44.460;26.114;2023-02-10T10:42:54;102764.25;;;1.04;73.94
63190;BME280;49286;44.460;26.114;2023-02-10T10:45:35;102760.03;;;1.16;71.33
63190;BME280;49286;44.460;26.114;2023-02-10T10:48:08;102631.75;;;0.27;71.00
63190;BME280;49286;44.460;26.114;2023-02-10T10:50:35;102654.09;;;0.94;71.94
63190;BME280;49286;44.460;26.114;2023-02-10T10:53:05;102638.28;;;0.68;69.64
63190;BME280;49286;44.460;26.114;2023-02-10T10:55:39;102735.44;;;1.57;66.58
63190;BME280;49286;44.460;26.114;2023-02-10T10:58:31;102758.88;;;1.70;64.21
63190;BME280;49286;44.460;26.114;2023-02-10T11:01:00;102608.69;;;1.45;64.24
63190;BME280;49286;44.460;26.114;2023-02-10T11:03:27;102607.69;;;1.08;60.08
63190;BME280;49286;44.460;26.114;2023-02-10T11:05:59;102619.28;;;1.36;60.56
63190;BME280;49286;44.460;26.114;2023-02-10T11:08:29;102721.53;;;1.66;60.85
63190;BME280;49286;44.460;26.114;2023-02-10T11:10:58;102756.09;;;2.39;59.57
63190;BME280;49286;44.460;26.114;2023-02-10T11:13:29;102704.75;;;1.97;58.64
63190;BME280;49286;44.460;26.114;2023-02-10T11:16:13;102620.72;;;2.05;58.76
63190;BME280;49286;44.460;26.114;2023-02-10T11:18:56;102699.16;;;3.16;57.15
63190;BME280;49286;44.460;26.114;2023-02-10T11:21:33;102714.13;;;3.07;58.51
63190;BME280;49286;44.460;26.114;2023-02-10T11:23:59;102716.28;;;3.52;57.51
63190;BME280;49286;44.460;26.114;2023-02-10T11:26:26;102706.50;;;3.48;57.68
63190;BME280;49286;44.460;26.114;2023-02-10T11:28:52;102684.63;;;3.58;54.75
63190;BME280;49286;44.460;26.114;2023-02-10T11:34:59;102694.53;;;3.77;54.38
63190;BME280;49286;44.460;26.114;2023-02-10T11:37:16;102569.38;;;2.49;53.61
63190;BME280;49286;44.460;26.114;2023-02-10T11:39:45;102553.19;;;2.65;52.03
63190;BME280;49286;44.460;26.114;2023-02-10T11:42:19;102685.84;;;3.50;51.76
63190;BME280;49286;44.460;26.114;2023-02-10T11:47:30;102659.81;;;2.58;51.23
63190;BME280;49286;44.460;26.114;2023-02-10T11:49:57;102644.09;;;2.68;52.89
63190;BME280;49286;44.460;26.114;2023-02-10T11:52:24;102631.94;;;2.67;54.67
63190;BME280;49286;44.460;26.114;2023-02-10T11:54:52;102602.34;;;2.14;55.40
63190;BME280;49286;44.460;26.114;2023-02-10T11:58:13;102667.19;;;2.15;58.00
63190;BME280;49286;44.460;26.114;2023-02-10T12:01:09;102677.78;;;2.68;58.51
63190;BME280;49286;44.460;26.114;2023-02-10T12:04:01;102549.03;;;1.67;57.81
63190;BME280;49286;44.460;26.114;2023-02-10T12:06:39;102631.94;;;2.42;57.87
63190;BME280;49286;44.460;26.114;2023-02-10T12:12:03;102669.13;;;2.06;58.43
63190;BME280;49286;44.460;26.114;2023-02-10T12:17:46;102618.66;;;1.87;62.23
63190;BME280;49286;44.460;26.114;2023-02-10T12:25:35;102650.34;;;2.33;64.45
63190;BME280;49286;44.460;26.114;2023-02-10T12:28:09;102654.09;;;2.25;63.20
63190;BME280;49286;44.460;26.114;2023-02-10T12:35:59;102511.31;;;1.45;60.34
63190;BME280;49286;44.460;26.114;2023-02-10T12:41:23;102624.59;;;1.86;61.31
63190;BME280;49286;44.460;26.114;2023-02-10T12:47:01;102616.69;;;2.08;60.80
63190;BME280;49286;44.460;26.114;2023-02-10T12:52:51;102614.06;;;2.33;59.05
63190;BME280;49286;44.460;26.114;2023-02-10T12:55:24;102633.91;;;2.33;58.79
63190;BME280;49286;44.460;26.114;2023-02-10T12:58:01;102627.84;;;2.32;57.59
63190;BME280;49286;44.460;26.114;2023-02-10T13:00:29;102628.34;;;2.15;56.67
63190;BME280;49286;44.460;26.114;2023-02-10T13:03:02;102624.44;;;2.33;56.57
63190;BME280;49286;44.460;26.114;2023-02-10T13:05:42;102522.97;;;1.52;57.55
63190;BME280;49286;44.460;26.114;2023-02-10T13:08:23;102478.66;;;1.11;59.76
63190;BME280;49286;44.460;26.114;2023-02-10T13:10:52;102631.31;;;2.33;60.52
63190;BME280;49286;44.460;26.114;2023-02-10T13:13:31;102554.47;;;1.95;60.90
63190;BME280;49286;44.460;26.114;2023-02-10T13:16:06;102630.31;;;2.56;60.58
63190;BME280;49286;44.460;26.114;2023-02-10T13:18:40;102631.78;;;2.02;60.15
63190;BME280;49286;44.460;26.114;2023-02-10T13:27:10;102630.91;;;2.15;63.51
63190;BME280;49286;44.460;26.114;2023-02-10T13:34:59;102450.81;;;0.95;61.85
63190;BME280;49286;44.460;26.114;2023-02-10T13:40:19;102491.06;;;1.40;59.96
63190;BME280;49286;44.460;26.114;2023-02-10T13:42:57;102489.09;;;1.61;58.44
63190;BME280;49286;44.460;26.114;2023-02-10T13:45:33;102478.78;;;1.49;58.36
63190;BME280;49286;44.460;26.114;2023-02-10T13:48:06;102465.41;;;1.06;59.49
63190;BME280;49286;44.460;26.114;2023-02-10T13:50:48;102577.41;;;2.02;60.02
63190;BME280;49286;44.460;26.114;2023-02-10T13:53:39;102597.34;;;1.92;59.07
63190;BME280;49286;44.460;26.114;2023-02-10T13:59:01;102600.91;;;2.30;58.71
63190;BME280;49286;44.460;26.114;2023-02-10T14:01:38;102602.75;;;2.45;58.60
63190;BME280;49286;44.460;26.114;2023-02-10T14:06:45;102479.38;;;1.33;58.47
63190;BME280;49286;44.460;26.114;2023-02-10T14:09:33;102605.41;;;2.33;59.17
63190;BME280;49286;44.460;26.114;2023-02-10T14:12:02;102504.97;;;1.54;59.73
63190;BME280;49286;44.460;26.114;2023-02-10T14:14:34;102541.88;;;1.88;59.22
63190;BME280;49286;44.460;26.114;2023-02-10T14:19:42;102475.94;;;1.58;60.92
63190;BME280;49286;44.460;26.114;2023-02-10T14:24:46;102504.97;;;1.54;62.20